Tuesday, December 18, 2018, 4:16 PM EST
Back to Local

KCQX, Chatham Municipal Airport

Location: Chatham, MA, United States Lat: 41.683
Local Time: 4:16 PM EST (21:16 GMT) Lon: -70
Time Zone: US/Eastern Elev: 68 ft

Show me the last for .
Show Decoded

2018-12-18 15:52 METAR KCQX 182052Z AUTO 32010G24KT 290V010 10SM FEW039 M01/M10 A2989 RMK AO2 PK
                 WND 30030/2008 SLP125 T10061100 53035 =
2018-12-18 14:52 METAR KCQX 181952Z AUTO 32014G28KT 290V350 10SM CLR 00/M09 A2984 RMK AO2 PK WND
                 33030/1923 SLP106 T00001094 =
2018-12-18 13:52 METAR KCQX 181852Z AUTO 32015G29KT 10SM CLR 00/M09 A2981 RMK AO2 PK WND
                 31030/1840 SLP096 T00001094 =
2018-12-18 12:52 METAR KCQX 181752Z AUTO 32013G28KT 10SM CLR M01/M09 A2979 RMK AO2 PK WND
                 31031/1737 SLP089 T10061094 10000 21028 53008 =
2018-12-18 11:52 METAR KCQX 181652Z AUTO 32016G33KT 280V350 10SM CLR M01/M09 A2978 RMK AO2 PK WND
                 32033/1652 SLP087 T10061089 =
2018-12-18 10:52 METAR KCQX 181552Z AUTO 32015G27KT 280V340 10SM SCT029 M01/M09 A2977 RMK AO2 PK
                 WND 32033/1517 SLP082 T10111089 =
2018-12-18 09:52 METAR KCQX 181452Z AUTO 31013G26KT 280V360 10SM BKN030 M02/M09 A2976 RMK AO2 PK
                 WND 33030/1434 SLP081 T10171094 51033 =
2018-12-18 08:52 METAR KCQX 181352Z AUTO 31012G22KT 10SM BKN032 M02/M09 A2974 RMK AO2 PK WND
                 32032/1310 SLP072 T10221094 =
2018-12-18 07:52 METAR KCQX 181252Z AUTO 31016G28KT 10SM BKN034 M03/M10 A2971 RMK AO2 PK WND
                 30030/1224 SLP061 T10281100 =
2018-12-18 06:52 METAR KCQX 181152Z AUTO 31013G26KT 10SM OVC033 M03/M10 A2967 RMK AO2 PK WND
                 33034/1129 UPB17E37 SLP048 P0000 60001 70003 T10281100 10033 21028 53031 =
2018-12-18 05:52 METAR KCQX 181052Z AUTO 31016G26KT 280V340 10SM OVC038 M02/M11 A2964 RMK AO2 PK
                 WND 29031/1005 SLP037 T10221106 =
2018-12-18 04:52 METAR KCQX 180952Z AUTO 31016G28KT 10SM SCT038 BKN050 OVC070 M01/M08 A2960 RMK
                 AO2 PK WND 31031/0934 SLP025 T10111083 =
2018-12-18 03:52 METAR KCQX 180852Z AUTO 31014G26KT 10SM SCT043 OVC050 01/M08 A2957 RMK AO2 PK
                 WND 32029/0801 SNE30 SLP016 P0000 60001 T00061083 53014 =
2018-12-18 02:52 METAR KCQX 180752Z AUTO 31009G21KT 270V350 4SM -SN FEW014 BKN050 OVC070 02/M02
                 A2955 RMK AO2 UPB45E48SNB44E45B48 PRESRR SLP009 P0001 T00171017 =
2018-12-18 01:52 METAR KCQX 180652Z AUTO 28007KT 240V320 10SM OVC075 03/M03 A2953 RMK AO2 SLP001
                 T00331028 =
2018-12-18 00:52 METAR KCQX 180552Z AUTO 27009G19KT 10SM SCT040 SCT047 OVC090 03/M03 A2953 RMK
                 AO2 SLP002 T00331028 10039 20022 55009 =
2018-12-17 23:52 METAR KCQX 180452Z AUTO 28010G19KT 230V310 10SM OVC080 03/M03 A2953 RMK AO2
                 SLP001 T00331028 400670022 =
2018-12-17 22:52 METAR KCQX 180352Z AUTO 29007KT 10SM SCT085 02/M03 A2955 RMK AO2 SLP007
                 T00221028 =
2018-12-17 21:52 METAR KCQX 180252Z AUTO VRB04KT 10SM CLR 02/M02 A2956 RMK AO2 SLP011 T00221022
                 53006 =
2018-12-17 20:52 METAR KCQX 180152Z AUTO 29010G17KT 10SM FEW036 FEW075 03/M02 A2955 RMK AO2
                 SLP007 T00281017 =
2018-12-17 19:52 METAR KCQX 180052Z AUTO 29007G20KT 260V320 10SM FEW030 SCT048 OVC070 04/M01
                 A2954 RMK AO2 SLP004 T00391006 =
2018-12-17 18:52 METAR KCQX 172352Z AUTO 27007G14KT 10SM FEW039 OVC065 03/00 A2954 RMK AO2 SLP004
                 60000 T00330000 10039 20028 53005 =
2018-12-17 17:52 METAR KCQX 172252Z AUTO 27005KT 10SM SCT039 BKN046 OVC065 03/00 A2953 RMK AO2
                 SLP002 T00330000 =
2018-12-17 16:52 METAR KCQX 172152Z AUTO 27006KT 10SM SCT047 03/00 A2953 RMK AO2 SLP000 T00280000
                 =

Support USWX by starting your Amazon purchase here.